Flight Track Log - Related Links

Times and Time Zones

All times are in EDT time to prevent confusion due to time zone crossing. See the N8646A flight status page for this flight to view local times or setup timezone preferences in your user account.

Time Position Orientation Groundspeed Altitude Reporting Facility
EDT Latitude Longitude Course Direction KTS MPH feet Rate Location/Type
Wed 08:18:42 AM 42.2036 -83.3556 174° South 153 176 1,200  Level Cleveland Center
Wed 08:19:25 AM 42.1747 -83.3514 171° South 166 191 2,500 1,800 Climbing Cleveland Center
Wed 08:20:02 AM 42.1447 -83.3450 172° South 204 235 3,600 1,846 Climbing FAA TRACON SMA TRACON (SMA)
Wed 08:20:43 AM 42.1025 -83.3372 163° South 236 272 4,900 2,148 Climbing FAA TRACON SMA TRACON (SMA)
Wed 08:21:23 AM 42.0553 -83.3183 111° Southeast 281 323 6,500 2,550 Climbing FAA TRACON SMA TRACON (SMA)
Wed 08:22:03 AM 42.0353 -83.2475 57° Northeast 317 365 8,300 2,625 Climbing FAA TRACON SMA TRACON (SMA)
Wed 08:22:43 AM 42.0664 -83.1833 10° North 315 362 10,000 1,823 Climbing FAA TRACON SMA TRACON (SMA)
Wed 08:23:22 AM 42.1203 -83.1711 North 320 368 10,700 1,350 Climbing FAA TRACON SMA TRACON (SMA)
Wed 08:24:03 AM 42.1839 -83.1675 North 338 389 11,800 1,725 Climbing FAA TRACON SMA TRACON (SMA)
Wed 08:24:42 AM 42.2506 -83.1653 North 347 399 13,000 1,275 Climbing FAA TRACON SMA TRACON (SMA)
Wed 08:25:23 AM 42.3156 -83.1622 North 364 419 13,500 1,357 Climbing FAA TRACON SMA TRACON (SMA)
Wed 08:26:06 AM 42.3847 -83.1589 North 370 426 14,900 2,100 Climbing FAA TRACON SMA TRACON (SMA)
Wed 08:26:43 AM 42.4539 -83.1561 North 366 421 16,300 2,211 Climbing FAA TRACON SMA TRACON (SMA)
Wed 08:27:22 AM 42.5242 -83.1531 North 365 420 17,700 1,725 Climbing FAA TRACON SMA TRACON (SMA)
Wed 08:28:03 AM 42.5886 -83.1506 12° North 363 418 18,600 951 Climbing FAA TRACON SMA TRACON (SMA)
Wed 08:28:44 AM 42.6592 -83.1306 21° North 395 455 19,000 296 Climbing FAA TRACON SMA TRACON (SMA)
Wed 08:29:24 AM 42.7328 -83.0914 22° Northeast 412 474 19,000  Level FAA TRACON SMA TRACON (SMA)
Wed 08:30:04 AM 42.8083 -83.0489 23° Northeast 422 486 19,000  Level FAA TRACON SMA TRACON (SMA)
Wed 08:30:44 AM 42.8789 -83.0078 47° Northeast 432 497 19,000  Level FAA TRACON SMA TRACON (SMA)
Wed 08:31:24 AM 42.9358 -82.9256 72° East 451 519 19,000  Level FAA TRACON SMA TRACON (SMA)
Wed 08:32:04 AM 42.9625 -82.8142 74° East 455 524 19,000  Level FAA TRACON SMA TRACON (SMA)
Wed 08:32:44 AM 42.9767 -82.7478 77° East 458 527 19,000  Level FAA TRACON SMA TRACON (SMA)
Wed 08:33:52 AM 43.0167 -82.5000 73° East 460 529 19,000  Level Toronto Center
Wed 08:34:52 AM 43.0500 -82.3500 75° East 450 518 19,000  Level Toronto Center
Wed 08:35:52 AM 43.0833 -82.1833 75° East 450 518 19,000  Level Toronto Center
Wed 08:36:52 AM 43.1167 -82.0167 75° East 440 506 19,000  Level Toronto Center
Wed 08:37:52 AM 43.1500 -81.8500 75° East 440 506 19,000  Level Toronto Center
Wed 08:38:52 AM 43.1833 -81.6833 73° East 440 506 19,000  Level Toronto Center
Wed 08:39:52 AM 43.2167 -81.5333 75° East 440 506 19,000  Level Toronto Center
Wed 08:40:52 AM 43.2500 -81.3667 76° East 440 506 19,000 -350 Level Toronto Center
Wed 08:41:52 AM 43.2833 -81.1833 71° East 440 506 18,300 -1,000 Descending Toronto Center
Wed 08:42:52 AM 43.3167 -81.0500 83° East 440 506 17,000 -1,450 Descending Toronto Center
Wed 08:43:52 AM 43.3333 -80.8667 63° Northeast 430 495 15,400 -1,550 Descending Toronto Center
Wed 08:44:52 AM 43.3833 -80.7333 79° East 400 460 13,900 -1,450 Descending Toronto Center
Wed 08:45:52 AM 43.4000 -80.6167 71° East 370 426 12,500 -1,500 Descending Toronto Center
Wed 08:46:52 AM 43.4333 -80.4833 79° East 330 380 10,900 -1,550 Descending Toronto Center
Wed 08:47:52 AM 43.4500 -80.3667 79° East 320 368 9,400 -1,400 Descending Toronto Center
Wed 08:48:52 AM 43.4667 -80.2500 75° East 300 345 8,100 -1,300 Descending Toronto Center
Wed 08:49:52 AM 43.4833 -80.1667 90° East 280 322 6,800 -1,200 Descending Toronto Center
Wed 08:50:52 AM 43.4833 -80.0667 90° East 250 288 5,700 -900 Descending Toronto Center
Wed 08:51:52 AM 43.4833 -79.9833 90° East 220 253 5,000 -650 Descending Toronto Center
Wed 08:52:52 AM 43.4833 -79.9167 47° Northeast 200 230 4,400 -900 Descending Toronto Center
Wed 08:53:52 AM 43.5167 -79.8667 55° Northeast 190 219 3,200 -700 Descending Toronto Center
Wed 08:54:52 AM 43.5500 -79.8000 47° Northeast 180 207 3,000 -200 Descending Toronto Center
Wed 08:55:52 AM 43.5833 -79.7500 47° Northeast 170 196 2,800 -550 Descending Toronto Center
Wed 08:56:52 AM 43.6167 -79.7000 20° North 160 184 1,900 -800 Descending Toronto Center
Wed 08:57:52 AM 43.6500 -79.6833 65° Northeast 130 150 1,200 -700 Descending Toronto Center
Wed 08:58:52 AM 43.6667 -79.6333 360° North 130 150 500 -350 Descending Toronto Center
Wed 08:59:52 AM 43.6667 -79.6333 360° North 40 46 500  Level Toronto Center

Login

Don't have an account? Register now (free) for customized features, flight alerts, and more!